Time;durP1;ratioP1;P1;durP2;ratioP2;P2;SDS_P1;SDS_P2;PMS_P1;PMS_P2;Temp;Humidity;BMP_temperature;BMP_pressure;BME280_temperature;BME280_humidity;BME280_pressure;Samples;Min_cycle;Max_cycle;Signal;HPM_P1;HPM_P2
2023/08/02 20:32:09;;;;;;;8.63;6.18;;;25.90;99.90;;;;;;5768131;23;20170;-76
2023/08/02 20:34:41;;;;;;;8.88;6.38;;;25.90;99.90;;;;;;4949120;29;20050;-75
2023/08/02 20:37:08;;;;;;;6.60;5.93;;;25.80;99.90;;;;;;4978384;28;20516;-75
2023/08/02 20:39:34;;;;;;;9.20;5.88;;;25.80;99.90;;;;;;4964950;28;20476;-75
2023/08/02 20:41:59;;;;;;;8.48;6.25;;;25.80;99.90;;;;;;4966406;28;20027;-75
2023/08/02 20:44:25;;;;;;;6.03;5.50;;;25.80;99.90;;;;;;4958272;28;20393;-75
2023/08/02 20:46:51;;;;;;;10.27;6.22;;;25.70;99.90;;;;;;4949499;28;20407;-75
2023/08/02 20:49:18;;;;;;;11.07;6.00;;;25.70;99.90;;;;;;4955828;28;20138;-75
2023/08/02 20:51:46;;;;;;;10.88;6.55;;;25.60;99.90;;;;;;4973189;28;20260;-75
2023/08/02 20:54:12;;;;;;;6.38;5.78;;;25.60;99.90;;;;;;4970085;28;20078;-75
2023/08/02 20:56:38;;;;;;;7.00;6.32;;;25.60;99.90;;;;;;4969670;28;20077;-75
2023/08/02 20:59:12;;;;;;;10.23;6.35;;;25.60;99.90;;;;;;4970451;28;20046;-76
2023/08/02 21:01:42;;;;;;;13.43;6.15;;;25.60;99.90;;;;;;4973091;28;20022;-75
2023/08/02 21:04:10;;;;;;;7.50;6.15;;;25.50;99.90;;;;;;4966093;28;20042;-75
2023/08/02 21:06:37;;;;;;;8.18;6.60;;;25.50;99.90;;;;;;4973221;28;20032;-74
2023/08/02 21:09:03;;;;;;;9.07;6.13;;;25.50;99.90;;;;;;4976189;28;20034;-76
2023/08/02 21:11:30;;;;;;;7.07;6.20;;;25.50;99.90;;;;;;4962864;28;20027;-77
2023/08/02 21:13:56;;;;;;;8.70;5.75;;;25.40;99.90;;;;;;4950301;28;20314;-76
2023/08/02 21:16:22;;;;;;;8.93;7.03;;;25.40;99.90;;;;;;4953859;28;20278;-78
2023/08/02 21:18:48;;;;;;;8.32;6.65;;;25.40;99.90;;;;;;4921253;23;20097;-75
2023/08/02 21:21:20;;;;;;;6.32;5.50;;;25.40;99.90;;;;;;4908571;29;20585;-74
2023/08/02 21:23:46;;;;;;;8.70;6.03;;;25.30;99.90;;;;;;4895613;29;20039;-74
2023/08/02 21:26:20;;;;;;;8.57;5.80;;;25.30;99.90;;;;;;4903394;29;20021;-75
2023/08/02 21:28:47;;;;;;;12.63;6.45;;;25.30;99.90;;;;;;4905686;29;20553;-74
2023/08/02 21:31:20;;;;;;;8.07;5.97;;;25.30;99.90;;;;;;4892197;29;20439;-75
2023/08/02 21:33:47;;;;;;;10.45;6.35;;;25.20;99.90;;;;;;4907416;29;20029;-75
2023/08/02 21:36:21;;;;;;;14.65;6.28;;;25.20;99.90;;;;;;4888147;29;20502;-75
2023/08/02 21:38:48;;;;;;;8.30;6.05;;;25.20;99.90;;;;;;4886543;29;20028;-76
2023/08/02 21:41:13;;;;;;;8.55;6.15;;;25.10;99.90;;;;;;4894732;29;20124;-76
2023/08/02 21:43:41;;;;;;;10.27;5.97;;;25.20;99.90;;;;;;4905016;29;20111;-76
2023/08/02 21:46:10;;;;;;;7.90;5.88;;;25.10;99.90;;;;;;4903673;29;20063;-77
2023/08/02 21:48:48;;;;;;;10.93;6.82;;;25.10;99.90;;;;;;4904169;29;20032;-76
2023/08/02 21:51:16;;;;;;;7.50;5.93;;;25.10;99.90;;;;;;4891799;29;20588;-76
2023/08/02 21:53:46;;;;;;;7.10;6.07;;;25.00;99.90;;;;;;4891103;29;20081;-76
2023/08/02 21:56:16;;;;;;;9.60;6.13;;;25.00;99.90;;;;;;4907200;29;20032;-75
2023/08/02 21:58:44;;;;;;;9.05;5.80;;;25.00;99.90;;;;;;4905849;29;20172;-75
2023/08/02 22:01:18;;;;;;;7.97;5.88;;;24.90;99.90;;;;;;4911576;29;20036;-76
2023/08/02 22:03:47;;;;;;;10.20;6.80;;;25.00;99.90;;;;;;4905216;29;20024;-76
2023/08/02 22:06:18;;;;;;;6.35;5.78;;;24.90;99.90;;;;;;4902425;29;20494;-74
2023/08/02 22:08:43;;;;;;;14.13;6.25;;;24.90;99.90;;;;;;4906395;29;20131;-74
2023/08/02 22:11:15;;;;;;;9.10;6.88;;;24.80;99.90;;;;;;4907549;29;20524;-75
2023/08/02 22:13:46;;;;;;;9.70;6.30;;;24.80;99.90;;;;;;4902905;29;20024;-75
2023/08/02 22:16:14;;;;;;;10.73;6.00;;;24.80;99.90;;;;;;4911597;29;20032;-75
2023/08/02 22:18:40;;;;;;;9.95;5.65;;;24.80;99.90;;;;;;4885233;29;20079;-75
2023/08/02 22:21:05;;;;;;;7.35;6.07;;;24.80;99.90;;;;;;4904629;29;20450;-75
2023/08/02 22:23:34;;;;;;;11.23;6.00;;;24.90;99.90;;;;;;4909960;29;20588;-75
2023/08/02 22:26:00;;;;;;;9.32;6.35;;;24.90;99.90;;;;;;4912777;29;20036;-77
2023/08/02 22:28:26;;;;;;;9.18;5.82;;;24.80;99.90;;;;;;4903317;29;20025;-75
2023/08/02 22:30:52;;;;;;;12.15;5.43;;;24.80;99.90;;;;;;4903632;29;20032;-77
2023/08/02 22:33:18;;;;;;;6.55;5.30;;;24.80;99.90;;;;;;4917965;29;20052;-77
2023/08/02 22:35:43;;;;;;;8.50;6.10;;;24.80;99.90;;;;;;4917597;29;20032;-76
2023/08/02 22:38:09;;;;;;;7.68;4.97;;;24.80;99.90;;;;;;4917649;29;20360;-77
2023/08/02 22:40:35;;;;;;;7.30;6.07;;;24.80;99.90;;;;;;4917659;29;20439;-77
2023/08/02 22:43:01;;;;;;;7.53;6.00;;;24.80;99.90;;;;;;4894927;29;20028;-77
2023/08/02 22:45:27;;;;;;;9.27;5.72;;;24.80;99.90;;;;;;4902220;29;20032;-74
2023/08/02 22:47:53;;;;;;;8.18;6.35;;;24.80;99.90;;;;;;4892178;29;20035;-75
2023/08/02 22:50:19;;;;;;;7.95;5.43;;;24.80;99.90;;;;;;4906212;29;20479;-75
2023/08/02 22:52:45;;;;;;;10.32;5.90;;;24.80;99.90;;;;;;4906734;29;20483;-74
2023/08/02 22:55:12;;;;;;;9.13;6.18;;;24.80;99.90;;;;;;4905158;29;20031;-75
2023/08/02 22:57:43;;;;;;;8.30;5.40;;;24.80;99.90;;;;;;4910091;29;20100;-75
2023/08/02 23:00:14;;;;;;;6.43;5.82;;;24.70;99.90;;;;;;4886394;29;20058;-74
2023/08/02 23:02:40;;;;;;;8.40;5.57;;;24.70;99.90;;;;;;4906079;29;20028;-74
2023/08/02 23:05:21;;;;;;;8.88;6.30;;;24.70;99.90;;;;;;4887630;29;20272;-75
2023/08/02 23:07:48;;;;;;;10.23;6.03;;;24.70;99.90;;;;;;4908806;29;20414;-75
2023/08/02 23:10:26;;;;;;;8.68;5.82;;;24.70;99.90;;;;;;4905873;29;20025;-75
2023/08/02 23:12:52;;;;;;;9.85;6.32;;;24.70;99.90;;;;;;4903306;29;20051;-74
2023/08/02 23:15:20;;;;;;;5.63;5.05;;;24.70;99.90;;;;;;4890979;29;20055;-74
2023/08/02 23:17:47;;;;;;;9.32;5.30;;;24.60;99.90;;;;;;4903565;29;20046;-75
2023/08/02 23:20:31;;;;;;;6.05;5.63;;;24.60;99.90;;;;;;4907245;29;20032;-75
2023/08/02 23:23:00;;;;;;;9.52;6.35;;;24.60;99.90;;;;;;4905780;29;20029;-75
2023/08/02 23:25:26;;;;;;;6.03;5.22;;;24.60;99.90;;;;;;4907682;29;20028;-75
2023/08/02 23:27:52;;;;;;;6.97;5.35;;;24.60;99.90;;;;;;4890663;29;20042;-75
2023/08/02 23:30:18;;;;;;;8.85;5.72;;;24.60;99.90;;;;;;4907141;29;20028;-75
2023/08/02 23:32:45;;;;;;;6.43;5.43;;;24.60;99.90;;;;;;4906079;29;20024;-75
2023/08/02 23:35:11;;;;;;;7.43;5.90;;;24.50;99.90;;;;;;4906846;29;20020;-74
2023/08/02 23:37:37;;;;;;;8.25;6.07;;;24.60;99.90;;;;;;4888534;29;20489;-75
2023/08/02 23:40:03;;;;;;;7.32;6.32;;;24.50;99.90;;;;;;4907426;29;20024;-75
2023/08/02 23:42:29;;;;;;;11.35;6.40;;;24.40;99.90;;;;;;4897633;29;20394;-75
2023/08/02 23:44:55;;;;;;;6.43;5.80;;;24.40;99.90;;;;;;4895802;29;20114;-75
2023/08/02 23:47:21;;;;;;;6.25;5.65;;;24.30;99.90;;;;;;4902622;29;20486;-74
2023/08/02 23:49:47;;;;;;;8.70;6.03;;;24.30;99.90;;;;;;4886767;29;20052;-75
2023/08/02 23:52:12;;;;;;;8.80;5.82;;;24.30;99.90;;;;;;4913295;29;20028;-75
2023/08/02 23:54:38;;;;;;;9.38;6.28;;;24.30;99.90;;;;;;4905952;29;20024;-74
2023/08/02 23:57:04;;;;;;;9.18;5.53;;;24.30;99.90;;;;;;4902975;29;20028;-74
2023/08/02 23:59:30;;;;;;;10.25;6.40;;;24.30;99.90;;;;;;4905445;29;20024;-75
